sensor_id;sensor_type;location;lat;lon;timestamp;temperature;humidity
33207;DHT22;19565;46.602;11.534;2023-02-11T00:01:33;0.30;92.30
33207;DHT22;19565;46.602;11.534;2023-02-11T00:04:03;0.40;92.50
33207;DHT22;19565;46.602;11.534;2023-02-11T00:06:33;0.40;92.60
33207;DHT22;19565;46.602;11.534;2023-02-11T00:09:04;0.30;92.70
33207;DHT22;19565;46.602;11.534;2023-02-11T00:11:32;0.30;92.30
33207;DHT22;19565;46.602;11.534;2023-02-11T00:14:03;0.30;92.20
33207;DHT22;19565;46.602;11.534;2023-02-11T00:16:33;0.30;92.10
33207;DHT22;19565;46.602;11.534;2023-02-11T00:19:02;0.20;91.90
33207;DHT22;19565;46.602;11.534;2023-02-11T00:21:32;0.10;91.90
33207;DHT22;19565;46.602;11.534;2023-02-11T00:24:00;0.20;91.90
33207;DHT22;19565;46.602;11.534;2023-02-11T00:26:32;0.30;92.30
33207;DHT22;19565;46.602;11.534;2023-02-11T00:29:00;0.30;92.60
33207;DHT22;19565;46.602;11.534;2023-02-11T00:31:28;0.20;92.50
33207;DHT22;19565;46.602;11.534;2023-02-11T00:33:57;0.20;92.70
33207;DHT22;19565;46.602;11.534;2023-02-11T00:36:27;0.20;92.70
33207;DHT22;19565;46.602;11.534;2023-02-11T00:38:56;0.20;92.40
33207;DHT22;19565;46.602;11.534;2023-02-11T00:41:25;0.20;92.30
33207;DHT22;19565;46.602;11.534;2023-02-11T00:43:54;0.30;92.70
33207;DHT22;19565;46.602;11.534;2023-02-11T00:46:22;0.20;92.90
33207;DHT22;19565;46.602;11.534;2023-02-11T00:48:51;0.30;93.00
33207;DHT22;19565;46.602;11.534;2023-02-11T00:51:20;0.30;92.60
33207;DHT22;19565;46.602;11.534;2023-02-11T00:53:48;0.30;92.70
33207;DHT22;19565;46.602;11.534;2023-02-11T00:56:16;0.30;93.00
33207;DHT22;19565;46.602;11.534;2023-02-11T00:58:44;0.30;92.90
33207;DHT22;19565;46.602;11.534;2023-02-11T01:01:14;0.30;92.70
33207;DHT22;19565;46.602;11.534;2023-02-11T01:03:42;0.10;92.10
33207;DHT22;19565;46.602;11.534;2023-02-11T01:06:10;0.20;92.40
33207;DHT22;19565;46.602;11.534;2023-02-11T01:08:39;0.20;92.60
33207;DHT22;19565;46.602;11.534;2023-02-11T01:11:14;0.20;93.10
33207;DHT22;19565;46.602;11.534;2023-02-11T01:13:42;0.20;93.40
33207;DHT22;19565;46.602;11.534;2023-02-11T01:16:11;0.20;93.70
33207;DHT22;19565;46.602;11.534;2023-02-11T01:18:41;0.10;93.60
33207;DHT22;19565;46.602;11.534;2023-02-11T01:21:10;0.10;93.30
33207;DHT22;19565;46.602;11.534;2023-02-11T01:23:38;0.10;93.10
33207;DHT22;19565;46.602;11.534;2023-02-11T01:26:06;0.10;93.10
33207;DHT22;19565;46.602;11.534;2023-02-11T01:28:34;0.10;93.20
33207;DHT22;19565;46.602;11.534;2023-02-11T01:31:02;0.00;93.30
33207;DHT22;19565;46.602;11.534;2023-02-11T01:33:30;0.00;93.30
33207;DHT22;19565;46.602;11.534;2023-02-11T01:36:04;0.00;93.30
33207;DHT22;19565;46.602;11.534;2023-02-11T01:38:33;0.00;93.10
33207;DHT22;19565;46.602;11.534;2023-02-11T01:41:04;0.00;93.00
33207;DHT22;19565;46.602;11.534;2023-02-11T01:43:34;0.00;92.90
33207;DHT22;19565;46.602;11.534;2023-02-11T01:46:17;0.00;92.90
33207;DHT22;19565;46.602;11.534;2023-02-11T01:48:49;0.00;92.30
33207;DHT22;19565;46.602;11.534;2023-02-11T01:51:21;0.00;92.20
33207;DHT22;19565;46.602;11.534;2023-02-11T01:53:51;0.10;92.50
33207;DHT22;19565;46.602;11.534;2023-02-11T01:56:41;0.00;92.70
33207;DHT22;19565;46.602;11.534;2023-02-11T01:59:32;0.00;92.90
33207;DHT22;19565;46.602;11.534;2023-02-11T02:02:05;0.00;92.90
33207;DHT22;19565;46.602;11.534;2023-02-11T02:04:38;0.00;92.90
33207;DHT22;19565;46.602;11.534;2023-02-11T02:07:13;-0.10;92.80
33207;DHT22;19565;46.602;11.534;2023-02-11T02:09:48;-0.10;92.80
33207;DHT22;19565;46.602;11.534;2023-02-11T02:12:18;-0.10;92.80
33207;DHT22;19565;46.602;11.534;2023-02-11T02:14:46;-0.10;92.80
33207;DHT22;19565;46.602;11.534;2023-02-11T02:17:23;-0.10;92.70
33207;DHT22;19565;46.602;11.534;2023-02-11T02:20:25;-0.10;92.60
33207;DHT22;19565;46.602;11.534;2023-02-11T02:23:16;-0.10;92.70
33207;DHT22;19565;46.602;11.534;2023-02-11T02:26:30;-0.10;93.10
33207;DHT22;19565;46.602;11.534;2023-02-11T02:29:30;-0.10;93.40
33207;DHT22;19565;46.602;11.534;2023-02-11T02:32:21;-0.10;93.20
33207;DHT22;19565;46.602;11.534;2023-02-11T02:34:52;-0.10;92.70
33207;DHT22;19565;46.602;11.534;2023-02-11T02:37:27;-0.20;92.90
33207;DHT22;19565;46.602;11.534;2023-02-11T02:39:56;-0.20;93.10
33207;DHT22;19565;46.602;11.534;2023-02-11T02:42:26;-0.20;93.00
33207;DHT22;19565;46.602;11.534;2023-02-11T02:44:55;-0.30;93.00
33207;DHT22;19565;46.602;11.534;2023-02-11T02:47:24;-0.20;92.90
33207;DHT22;19565;46.602;11.534;2023-02-11T02:49:52;-0.20;93.00
33207;DHT22;19565;46.602;11.534;2023-02-11T02:52:32;-0.30;93.40
33207;DHT22;19565;46.602;11.534;2023-02-11T02:55:24;-0.30;93.70
33207;DHT22;19565;46.602;11.534;2023-02-11T02:58:17;-0.30;93.50
33207;DHT22;19565;46.602;11.534;2023-02-11T03:00:55;-0.30;93.40
33207;DHT22;19565;46.602;11.534;2023-02-11T03:03:33;-0.30;93.40
33207;DHT22;19565;46.602;11.534;2023-02-11T03:06:04;-0.30;93.30
33207;DHT22;19565;46.602;11.534;2023-02-11T03:08:37;-0.30;93.10
33207;DHT22;19565;46.602;11.534;2023-02-11T03:11:09;-0.30;93.20
33207;DHT22;19565;46.602;11.534;2023-02-11T03:13:39;-0.20;92.70
33207;DHT22;19565;46.602;11.534;2023-02-11T03:16:08;-0.20;93.10
33207;DHT22;19565;46.602;11.534;2023-02-11T03:18:43;-0.30;92.70
33207;DHT22;19565;46.602;11.534;2023-02-11T03:21:12;-0.40;92.60
33207;DHT22;19565;46.602;11.534;2023-02-11T03:23:43;-0.30;92.70
33207;DHT22;19565;46.602;11.534;2023-02-11T03:26:20;-0.20;92.80
33207;DHT22;19565;46.602;11.534;2023-02-11T03:28:54;-0.10;93.10
33207;DHT22;19565;46.602;11.534;2023-02-11T03:31:28;-0.10;93.60
33207;DHT22;19565;46.602;11.534;2023-02-11T03:34:03;-0.20;94.00
33207;DHT22;19565;46.602;11.534;2023-02-11T03:36:41;-0.20;93.90
33207;DHT22;19565;46.602;11.534;2023-02-11T03:39:16;-0.20;93.80
33207;DHT22;19565;46.602;11.534;2023-02-11T03:41:47;-0.30;93.60
33207;DHT22;19565;46.602;11.534;2023-02-11T03:44:17;-0.30;93.50
33207;DHT22;19565;46.602;11.534;2023-02-11T03:46:49;-0.20;93.60
33207;DHT22;19565;46.602;11.534;2023-02-11T03:49:20;-0.20;93.40
33207;DHT22;19565;46.602;11.534;2023-02-11T03:51:51;-0.20;93.60
33207;DHT22;19565;46.602;11.534;2023-02-11T03:54:25;-0.10;93.60
33207;DHT22;19565;46.602;11.534;2023-02-11T03:56:57;-0.20;93.60
33207;DHT22;19565;46.602;11.534;2023-02-11T03:59:25;-0.20;93.80
33207;DHT22;19565;46.602;11.534;2023-02-11T04:01:54;-0.20;93.50
33207;DHT22;19565;46.602;11.534;2023-02-11T04:04:24;-0.20;93.20
33207;DHT22;19565;46.602;11.534;2023-02-11T04:06:52;-0.30;93.20
33207;DHT22;19565;46.602;11.534;2023-02-11T04:09:20;-0.30;93.10
33207;DHT22;19565;46.602;11.534;2023-02-11T04:11:48;-0.30;93.10
33207;DHT22;19565;46.602;11.534;2023-02-11T04:14:16;-0.30;93.10
33207;DHT22;19565;46.602;11.534;2023-02-11T04:16:44;-0.30;93.00
33207;DHT22;19565;46.602;11.534;2023-02-11T04:19:12;-0.30;92.80
33207;DHT22;19565;46.602;11.534;2023-02-11T04:21:42;-0.30;93.10
33207;DHT22;19565;46.602;11.534;2023-02-11T04:24:10;-0.30;93.50
33207;DHT22;19565;46.602;11.534;2023-02-11T04:26:38;-0.30;93.70
33207;DHT22;19565;46.602;11.534;2023-02-11T04:29:06;-0.30;93.70
33207;DHT22;19565;46.602;11.534;2023-02-11T04:31:34;-0.40;93.30
33207;DHT22;19565;46.602;11.534;2023-02-11T04:34:02;-0.40;93.40
33207;DHT22;19565;46.602;11.534;2023-02-11T04:36:30;-0.30;93.20
33207;DHT22;19565;46.602;11.534;2023-02-11T04:38:59;-0.30;93.20
33207;DHT22;19565;46.602;11.534;2023-02-11T04:41:27;-0.30;93.30
33207;DHT22;19565;46.602;11.534;2023-02-11T04:43:55;-0.40;93.10
33207;DHT22;19565;46.602;11.534;2023-02-11T04:46:23;-0.40;93.30
33207;DHT22;19565;46.602;11.534;2023-02-11T04:48:51;-0.30;93.20
33207;DHT22;19565;46.602;11.534;2023-02-11T04:51:19;-0.30;93.30
33207;DHT22;19565;46.602;11.534;2023-02-11T04:53:47;-0.30;93.60
33207;DHT22;19565;46.602;11.534;2023-02-11T04:56:17;-0.30;93.50
33207;DHT22;19565;46.602;11.534;2023-02-11T04:58:45;-0.30;93.50
33207;DHT22;19565;46.602;11.534;2023-02-11T05:01:14;-0.40;93.70
33207;DHT22;19565;46.602;11.534;2023-02-11T05:03:42;-0.40;94.00
33207;DHT22;19565;46.602;11.534;2023-02-11T05:06:10;-0.40;94.20
33207;DHT22;19565;46.602;11.534;2023-02-11T05:08:39;-0.50;94.20
33207;DHT22;19565;46.602;11.534;2023-02-11T05:11:08;-0.50;94.40
33207;DHT22;19565;46.602;11.534;2023-02-11T05:13:42;-0.50;94.10
33207;DHT22;19565;46.602;11.534;2023-02-11T05:16:10;-0.50;94.00
33207;DHT22;19565;46.602;11.534;2023-02-11T05:18:40;-0.50;93.90
33207;DHT22;19565;46.602;11.534;2023-02-11T05:21:10;-0.50;93.90
33207;DHT22;19565;46.602;11.534;2023-02-11T05:23:39;-0.50;93.70
33207;DHT22;19565;46.602;11.534;2023-02-11T05:26:07;-0.50;93.40
33207;DHT22;19565;46.602;11.534;2023-02-11T05:28:36;-0.50;93.20
33207;DHT22;19565;46.602;11.534;2023-02-11T05:31:06;-0.60;93.20
33207;DHT22;19565;46.602;11.534;2023-02-11T05:33:35;-0.50;93.50
33207;DHT22;19565;46.602;11.534;2023-02-11T05:36:06;-0.50;93.80
33207;DHT22;19565;46.602;11.534;2023-02-11T05:38:35;-0.60;93.60
33207;DHT22;19565;46.602;11.534;2023-02-11T05:41:05;-0.50;93.50
33207;DHT22;19565;46.602;11.534;2023-02-11T05:43:33;-0.50;93.20
33207;DHT22;19565;46.602;11.534;2023-02-11T05:46:03;-0.60;92.90
33207;DHT22;19565;46.602;11.534;2023-02-11T05:48:32;-0.50;93.00
33207;DHT22;19565;46.602;11.534;2023-02-11T05:51:00;-0.50;93.50
33207;DHT22;19565;46.602;11.534;2023-02-11T05:53:28;-0.40;93.80
33207;DHT22;19565;46.602;11.534;2023-02-11T05:55:56;-0.40;93.80
33207;DHT22;19565;46.602;11.534;2023-02-11T05:58:24;-0.60;93.10
33207;DHT22;19565;46.602;11.534;2023-02-11T06:00:52;-0.60;92.70
33207;DHT22;19565;46.602;11.534;2023-02-11T06:03:20;-0.50;93.00
33207;DHT22;19565;46.602;11.534;2023-02-11T06:05:50;-0.50;93.40
33207;DHT22;19565;46.602;11.534;2023-02-11T06:08:18;-0.40;93.70
33207;DHT22;19565;46.602;11.534;2023-02-11T06:10:46;-0.50;93.80
33207;DHT22;19565;46.602;11.534;2023-02-11T06:13:14;-0.50;93.50
33207;DHT22;19565;46.602;11.534;2023-02-11T06:15:44;-0.80;93.30
33207;DHT22;19565;46.602;11.534;2023-02-11T06:18:12;-0.60;93.50
33207;DHT22;19565;46.602;11.534;2023-02-11T06:20:40;-0.60;93.70
33207;DHT22;19565;46.602;11.534;2023-02-11T06:23:10;-0.50;93.80
33207;DHT22;19565;46.602;11.534;2023-02-11T06:25:38;-0.50;93.70
33207;DHT22;19565;46.602;11.534;2023-02-11T06:28:06;-0.50;93.50
33207;DHT22;19565;46.602;11.534;2023-02-11T06:30:36;-0.40;93.40
33207;DHT22;19565;46.602;11.534;2023-02-11T06:33:04;-0.40;93.30
33207;DHT22;19565;46.602;11.534;2023-02-11T06:35:33;-0.40;93.20
33207;DHT22;19565;46.602;11.534;2023-02-11T06:38:02;-0.40;93.00
33207;DHT22;19565;46.602;11.534;2023-02-11T06:40:31;-0.30;92.80
33207;DHT22;19565;46.602;11.534;2023-02-11T06:42:59;-0.30;92.80
33207;DHT22;19565;46.602;11.534;2023-02-11T06:45:27;-0.40;92.60
33207;DHT22;19565;46.602;11.534;2023-02-11T06:47:55;-0.40;92.50
33207;DHT22;19565;46.602;11.534;2023-02-11T06:50:23;-0.30;92.60
33207;DHT22;19565;46.602;11.534;2023-02-11T06:52:51;-0.20;92.50
33207;DHT22;19565;46.602;11.534;2023-02-11T06:55:19;-0.30;92.20
33207;DHT22;19565;46.602;11.534;2023-02-11T06:57:49;-0.30;92.20
33207;DHT22;19565;46.602;11.534;2023-02-11T07:00:17;-0.20;92.10
33207;DHT22;19565;46.602;11.534;2023-02-11T07:02:45;-0.20;92.10
33207;DHT22;19565;46.602;11.534;2023-02-11T07:05:13;-0.20;92.00
33207;DHT22;19565;46.602;11.534;2023-02-11T07:07:41;-0.10;92.10
33207;DHT22;19565;46.602;11.534;2023-02-11T07:10:09;-0.10;92.20
33207;DHT22;19565;46.602;11.534;2023-02-11T07:12:37;0.00;92.50
33207;DHT22;19565;46.602;11.534;2023-02-11T07:15:07;-0.10;92.70
33207;DHT22;19565;46.602;11.534;2023-02-11T07:17:35;0.00;92.70
33207;DHT22;19565;46.602;11.534;2023-02-11T07:20:04;0.00;92.40
33207;DHT22;19565;46.602;11.534;2023-02-11T07:22:33;0.10;92.30
33207;DHT22;19565;46.602;11.534;2023-02-11T07:25:01;0.10;92.50
33207;DHT22;19565;46.602;11.534;2023-02-11T07:27:30;0.10;92.30
33207;DHT22;19565;46.602;11.534;2023-02-11T07:29:58;0.10;92.30
33207;DHT22;19565;46.602;11.534;2023-02-11T07:32:27;0.20;92.20
33207;DHT22;19565;46.602;11.534;2023-02-11T07:34:55;0.30;92.50
33207;DHT22;19565;46.602;11.534;2023-02-11T07:37:23;0.30;92.50
33207;DHT22;19565;46.602;11.534;2023-02-11T07:39:51;0.30;92.40
33207;DHT22;19565;46.602;11.534;2023-02-11T07:42:19;0.30;92.40
33207;DHT22;19565;46.602;11.534;2023-02-11T07:44:47;0.40;92.30
33207;DHT22;19565;46.602;11.534;2023-02-11T07:47:16;0.30;91.40
33207;DHT22;19565;46.602;11.534;2023-02-11T07:49:46;0.30;91.60
33207;DHT22;19565;46.602;11.534;2023-02-11T07:52:14;0.30;90.90
33207;DHT22;19565;46.602;11.534;2023-02-11T07:54:42;0.30;90.80
33207;DHT22;19565;46.602;11.534;2023-02-11T07:57:10;0.40;90.70
33207;DHT22;19565;46.602;11.534;2023-02-11T07:59:38;0.20;90.10
33207;DHT22;19565;46.602;11.534;2023-02-11T08:02:07;0.00;90.40
33207;DHT22;19565;46.602;11.534;2023-02-11T08:04:35;-0.20;90.60
33207;DHT22;19565;46.602;11.534;2023-02-11T08:07:05;0.00;91.00
33207;DHT22;19565;46.602;11.534;2023-02-11T08:09:33;-0.10;90.60
33207;DHT22;19565;46.602;11.534;2023-02-11T08:12:01;0.10;90.80
33207;DHT22;19565;46.602;11.534;2023-02-11T08:14:29;0.20;90.40
33207;DHT22;19565;46.602;11.534;2023-02-11T08:16:58;0.30;90.30
33207;DHT22;19565;46.602;11.534;2023-02-11T08:19:26;0.10;90.20
33207;DHT22;19565;46.602;11.534;2023-02-11T08:21:59;0.00;90.30
33207;DHT22;19565;46.602;11.534;2023-02-11T08:24:28;0.20;90.40
33207;DHT22;19565;46.602;11.534;2023-02-11T08:26:56;0.20;90.20
33207;DHT22;19565;46.602;11.534;2023-02-11T08:29:25;0.20;90.40
33207;DHT22;19565;46.602;11.534;2023-02-11T08:31:53;0.20;90.30
33207;DHT22;19565;46.602;11.534;2023-02-11T08:34:21;0.30;90.20
33207;DHT22;19565;46.602;11.534;2023-02-11T08:36:49;0.30;90.00
33207;DHT22;19565;46.602;11.534;2023-02-11T08:39:19;0.40;90.10
33207;DHT22;19565;46.602;11.534;2023-02-11T08:41:51;0.50;90.30
33207;DHT22;19565;46.602;11.534;2023-02-11T08:44:20;0.60;90.10
33207;DHT22;19565;46.602;11.534;2023-02-11T08:46:50;0.70;90.00
33207;DHT22;19565;46.602;11.534;2023-02-11T08:49:18;0.60;89.80
33207;DHT22;19565;46.602;11.534;2023-02-11T08:51:46;0.60;90.10
33207;DHT22;19565;46.602;11.534;2023-02-11T08:54:15;0.70;89.80
33207;DHT22;19565;46.602;11.534;2023-02-11T08:56:44;0.70;89.30
33207;DHT22;19565;46.602;11.534;2023-02-11T08:59:13;0.70;89.00
33207;DHT22;19565;46.602;11.534;2023-02-11T09:01:43;0.70;88.90
33207;DHT22;19565;46.602;11.534;2023-02-11T09:04:12;0.80;89.00
33207;DHT22;19565;46.602;11.534;2023-02-11T09:06:43;0.80;88.10
33207;DHT22;19565;46.602;11.534;2023-02-11T09:09:13;0.90;87.80
33207;DHT22;19565;46.602;11.534;2023-02-11T09:11:42;1.10;88.00
33207;DHT22;19565;46.602;11.534;2023-02-11T09:14:17;1.10;87.60
33207;DHT22;19565;46.602;11.534;2023-02-11T09:16:45;1.20;87.70
33207;DHT22;19565;46.602;11.534;2023-02-11T09:19:13;1.10;87.50
33207;DHT22;19565;46.602;11.534;2023-02-11T09:21:42;1.00;87.90
33207;DHT22;19565;46.602;11.534;2023-02-11T09:24:10;1.10;87.70
33207;DHT22;19565;46.602;11.534;2023-02-11T09:26:40;1.20;87.60
33207;DHT22;19565;46.602;11.534;2023-02-11T09:29:08;1.10;87.00
33207;DHT22;19565;46.602;11.534;2023-02-11T09:31:38;1.30;87.00
33207;DHT22;19565;46.602;11.534;2023-02-11T09:34:06;1.40;86.60
33207;DHT22;19565;46.602;11.534;2023-02-11T09:36:36;1.50;86.80
33207;DHT22;19565;46.602;11.534;2023-02-11T09:39:07;1.60;87.10
33207;DHT22;19565;46.602;11.534;2023-02-11T09:41:46;1.70;86.70
33207;DHT22;19565;46.602;11.534;2023-02-11T09:44:19;1.80;86.10
33207;DHT22;19565;46.602;11.534;2023-02-11T09:46:54;1.70;84.50
33207;DHT22;19565;46.602;11.534;2023-02-11T09:49:25;1.80;84.60
33207;DHT22;19565;46.602;11.534;2023-02-11T09:52:02;1.80;84.20
33207;DHT22;19565;46.602;11.534;2023-02-11T09:54:36;1.80;82.90
33207;DHT22;19565;46.602;11.534;2023-02-11T09:57:08;1.80;83.30
33207;DHT22;19565;46.602;11.534;2023-02-11T09:59:52;1.80;83.10
33207;DHT22;19565;46.602;11.534;2023-02-11T10:02:26;1.90;82.20
33207;DHT22;19565;46.602;11.534;2023-02-11T10:05:12;2.00;82.70
33207;DHT22;19565;46.602;11.534;2023-02-11T10:07:47;2.00;82.00
33207;DHT22;19565;46.602;11.534;2023-02-11T10:10:30;1.70;82.10
33207;DHT22;19565;46.602;11.534;2023-02-11T10:13:32;1.70;82.20
33207;DHT22;19565;46.602;11.534;2023-02-11T10:16:12;1.80;82.30
33207;DHT22;19565;46.602;11.534;2023-02-11T10:18:57;1.90;82.70
33207;DHT22;19565;46.602;11.534;2023-02-11T10:21:37;2.00;82.50
33207;DHT22;19565;46.602;11.534;2023-02-11T10:24:11;2.00;82.10
33207;DHT22;19565;46.602;11.534;2023-02-11T10:26:41;2.10;81.60
33207;DHT22;19565;46.602;11.534;2023-02-11T10:29:14;2.10;81.50
33207;DHT22;19565;46.602;11.534;2023-02-11T10:31:46;2.10;80.80
33207;DHT22;19565;46.602;11.534;2023-02-11T10:34:16;2.10;80.10
33207;DHT22;19565;46.602;11.534;2023-02-11T10:36:45;2.20;80.10
33207;DHT22;19565;46.602;11.534;2023-02-11T10:39:15;2.10;79.50
33207;DHT22;19565;46.602;11.534;2023-02-11T10:41:47;2.20;79.60
33207;DHT22;19565;46.602;11.534;2023-02-11T10:44:22;2.20;79.80
33207;DHT22;19565;46.602;11.534;2023-02-11T10:46:51;2.30;80.00
33207;DHT22;19565;46.602;11.534;2023-02-11T10:49:37;2.30;79.90
33207;DHT22;19565;46.602;11.534;2023-02-11T10:52:13;2.30;80.00
33207;DHT22;19565;46.602;11.534;2023-02-11T10:54:54;2.30;80.00
33207;DHT22;19565;46.602;11.534;2023-02-11T10:57:26;2.30;80.30
33207;DHT22;19565;46.602;11.534;2023-02-11T10:59:57;2.30;80.40
33207;DHT22;19565;46.602;11.534;2023-02-11T11:02:28;2.40;80.40
33207;DHT22;19565;46.602;11.534;2023-02-11T11:05:00;2.50;80.60
33207;DHT22;19565;46.602;11.534;2023-02-11T11:07:31;2.50;80.70
33207;DHT22;19565;46.602;11.534;2023-02-11T11:10:03;2.50;79.30
33207;DHT22;19565;46.602;11.534;2023-02-11T11:12:35;2.60;78.80
33207;DHT22;19565;46.602;11.534;2023-02-11T11:15:19;2.70;78.60
33207;DHT22;19565;46.602;11.534;2023-02-11T11:17:48;2.70;78.80
33207;DHT22;19565;46.602;11.534;2023-02-11T11:20:23;2.70;77.50
33207;DHT22;19565;46.602;11.534;2023-02-11T11:23:08;2.70;77.10
33207;DHT22;19565;46.602;11.534;2023-02-11T11:25:39;2.70;77.30
33207;DHT22;19565;46.602;11.534;2023-02-11T11:28:19;2.70;77.60
33207;DHT22;19565;46.602;11.534;2023-02-11T11:30:48;2.80;77.30
33207;DHT22;19565;46.602;11.534;2023-02-11T11:33:21;2.80;77.10
33207;DHT22;19565;46.602;11.534;2023-02-11T11:36:02;2.80;77.50
33207;DHT22;19565;46.602;11.534;2023-02-11T11:38:31;2.90;77.20
33207;DHT22;19565;46.602;11.534;2023-02-11T11:41:17;3.00;76.50
33207;DHT22;19565;46.602;11.534;2023-02-11T11:43:57;3.00;76.90
33207;DHT22;19565;46.602;11.534;2023-02-11T11:46:28;3.10;77.00
33207;DHT22;19565;46.602;11.534;2023-02-11T11:49:14;3.10;76.80
33207;DHT22;19565;46.602;11.534;2023-02-11T11:51:50;3.20;76.50
33207;DHT22;19565;46.602;11.534;2023-02-11T11:54:22;3.30;76.20
33207;DHT22;19565;46.602;11.534;2023-02-11T11:56:55;3.40;75.00
33207;DHT22;19565;46.602;11.534;2023-02-11T11:59:26;3.60;73.80
33207;DHT22;19565;46.602;11.534;2023-02-11T12:02:12;3.80;71.40
33207;DHT22;19565;46.602;11.534;2023-02-11T12:05:01;3.80;70.70
33207;DHT22;19565;46.602;11.534;2023-02-11T12:07:44;4.00;70.00
33207;DHT22;19565;46.602;11.534;2023-02-11T12:10:30;4.10;69.50
33207;DHT22;19565;46.602;11.534;2023-02-11T12:13:11;4.10;69.10
33207;DHT22;19565;46.602;11.534;2023-02-11T12:15:51;4.20;69.40
33207;DHT22;19565;46.602;11.534;2023-02-11T12:18:37;4.30;70.20
33207;DHT22;19565;46.602;11.534;2023-02-11T12:21:19;4.30;70.30
33207;DHT22;19565;46.602;11.534;2023-02-11T12:24:12;4.40;69.90
33207;DHT22;19565;46.602;11.534;2023-02-11T12:26:45;4.40;69.50
33207;DHT22;19565;46.602;11.534;2023-02-11T12:29:22;4.50;68.80
33207;DHT22;19565;46.602;11.534;2023-02-11T12:32:01;4.60;68.00
33207;DHT22;19565;46.602;11.534;2023-02-11T12:35:01;4.70;68.40
33207;DHT22;19565;46.602;11.534;2023-02-11T12:37:47;4.90;66.70
33207;DHT22;19565;46.602;11.534;2023-02-11T12:40:21;5.10;65.80
33207;DHT22;19565;46.602;11.534;2023-02-11T12:43:03;5.20;65.70
33207;DHT22;19565;46.602;11.534;2023-02-11T12:48:54;5.40;67.10
33207;DHT22;19565;46.602;11.534;2023-02-11T12:51:31;5.50;64.70
33207;DHT22;19565;46.602;11.534;2023-02-11T12:54:19;5.60;65.00
33207;DHT22;19565;46.602;11.534;2023-02-11T12:56:54;5.70;64.40
33207;DHT22;19565;46.602;11.534;2023-02-11T12:59:39;5.80;63.20
33207;DHT22;19565;46.602;11.534;2023-02-11T13:02:18;5.90;63.10
33207;DHT22;19565;46.602;11.534;2023-02-11T13:04:52;5.90;63.10
33207;DHT22;19565;46.602;11.534;2023-02-11T13:07:26;5.90;63.70
33207;DHT22;19565;46.602;11.534;2023-02-11T13:09:58;5.90;63.60
33207;DHT22;19565;46.602;11.534;2023-02-11T13:12:31;6.00;63.10
33207;DHT22;19565;46.602;11.534;2023-02-11T13:15:18;6.10;62.50
33207;DHT22;19565;46.602;11.534;2023-02-11T13:17:53;6.10;62.80
33207;DHT22;19565;46.602;11.534;2023-02-11T13:20:34;6.10;63.80
33207;DHT22;19565;46.602;11.534;2023-02-11T13:23:12;6.10;64.40
33207;DHT22;19565;46.602;11.534;2023-02-11T13:25:49;6.30;63.80
33207;DHT22;19565;46.602;11.534;2023-02-11T13:28:31;6.30;63.70
33207;DHT22;19565;46.602;11.534;2023-02-11T13:31:03;6.30;64.20
33207;DHT22;19565;46.602;11.534;2023-02-11T13:33:34;6.30;64.60
33207;DHT22;19565;46.602;11.534;2023-02-11T13:36:14;6.40;64.30
33207;DHT22;19565;46.602;11.534;2023-02-11T13:38:52;6.50;63.20
33207;DHT22;19565;46.602;11.534;2023-02-11T13:41:25;6.50;62.30
33207;DHT22;19565;46.602;11.534;2023-02-11T13:46:54;6.60;61.10
33207;DHT22;19565;46.602;11.534;2023-02-11T13:49:28;6.70;61.10
33207;DHT22;19565;46.602;11.534;2023-02-11T13:51:58;6.80;60.50
33207;DHT22;19565;46.602;11.534;2023-02-11T13:54:31;6.80;59.90
33207;DHT22;19565;46.602;11.534;2023-02-11T13:57:24;6.90;60.00
33207;DHT22;19565;46.602;11.534;2023-02-11T13:59:56;6.90;59.90
33207;DHT22;19565;46.602;11.534;2023-02-11T14:02:30;7.00;59.50
33207;DHT22;19565;46.602;11.534;2023-02-11T14:05:27;7.00;59.30
33207;DHT22;19565;46.602;11.534;2023-02-11T14:08:21;7.00;59.10
33207;DHT22;19565;46.602;11.534;2023-02-11T14:11:47;7.10;59.10
33207;DHT22;19565;46.602;11.534;2023-02-11T14:14:21;7.10;59.00
33207;DHT22;19565;46.602;11.534;2023-02-11T14:19:50;7.20;59.20
33207;DHT22;19565;46.602;11.534;2023-02-11T14:22:22;7.30;59.60
33207;DHT22;19565;46.602;11.534;2023-02-11T14:24:54;7.20;59.60
33207;DHT22;19565;46.602;11.534;2023-02-11T14:27:27;7.10;60.90
33207;DHT22;19565;46.602;11.534;2023-02-11T14:30:12;7.10;62.20
33207;DHT22;19565;46.602;11.534;2023-02-11T14:35:52;7.00;62.90
33207;DHT22;19565;46.602;11.534;2023-02-11T14:38:30;6.90;63.60
33207;DHT22;19565;46.602;11.534;2023-02-11T14:41:05;6.90;63.90
33207;DHT22;19565;46.602;11.534;2023-02-11T14:43:37;6.90;63.40
33207;DHT22;19565;46.602;11.534;2023-02-11T14:46:06;6.80;64.20
33207;DHT22;19565;46.602;11.534;2023-02-11T14:48:35;6.80;63.60
33207;DHT22;19565;46.602;11.534;2023-02-11T14:51:08;6.80;63.90
33207;DHT22;19565;46.602;11.534;2023-02-11T14:53:40;6.70;64.20
33207;DHT22;19565;46.602;11.534;2023-02-11T14:56:17;6.70;64.70
33207;DHT22;19565;46.602;11.534;2023-02-11T14:58:46;6.60;65.60
33207;DHT22;19565;46.602;11.534;2023-02-11T15:01:27;6.50;65.10
33207;DHT22;19565;46.602;11.534;2023-02-11T15:03:57;6.50;64.50
33207;DHT22;19565;46.602;11.534;2023-02-11T15:06:31;6.50;65.20
33207;DHT22;19565;46.602;11.534;2023-02-11T15:09:03;6.50;65.70
33207;DHT22;19565;46.602;11.534;2023-02-11T15:11:36;6.40;65.50
33207;DHT22;19565;46.602;11.534;2023-02-11T15:14:08;6.40;66.60
33207;DHT22;19565;46.602;11.534;2023-02-11T15:16:40;6.30;67.90
33207;DHT22;19565;46.602;11.534;2023-02-11T15:19:22;6.30;68.10
33207;DHT22;19565;46.602;11.534;2023-02-11T15:21:53;6.20;68.40
33207;DHT22;19565;46.602;11.534;2023-02-11T15:24:25;6.20;68.30
33207;DHT22;19565;46.602;11.534;2023-02-11T15:26:57;6.20;68.60
33207;DHT22;19565;46.602;11.534;2023-02-11T15:29:34;6.10;69.00
33207;DHT22;19565;46.602;11.534;2023-02-11T15:32:05;6.00;69.30
33207;DHT22;19565;46.602;11.534;2023-02-11T15:34:33;6.00;69.80
33207;DHT22;19565;46.602;11.534;2023-02-11T15:37:03;6.00;70.10
33207;DHT22;19565;46.602;11.534;2023-02-11T15:39:33;6.00;70.50
33207;DHT22;19565;46.602;11.534;2023-02-11T15:42:20;5.90;71.00
33207;DHT22;19565;46.602;11.534;2023-02-11T15:45:06;5.90;71.30
33207;DHT22;19565;46.602;11.534;2023-02-11T15:47:35;5.90;71.30
33207;DHT22;19565;46.602;11.534;2023-02-11T15:50:04;5.90;71.70
33207;DHT22;19565;46.602;11.534;2023-02-11T15:52:34;5.80;72.00
33207;DHT22;19565;46.602;11.534;2023-02-11T15:55:02;5.80;73.00
33207;DHT22;19565;46.602;11.534;2023-02-11T15:57:33;5.80;73.40
33207;DHT22;19565;46.602;11.534;2023-02-11T16:00:01;5.70;73.80
33207;DHT22;19565;46.602;11.534;2023-02-11T16:02:34;5.70;73.50
33207;DHT22;19565;46.602;11.534;2023-02-11T16:05:07;5.70;73.40
33207;DHT22;19565;46.602;11.534;2023-02-11T16:07:42;5.70;73.80
33207;DHT22;19565;46.602;11.534;2023-02-11T16:10:23;5.70;74.60
33207;DHT22;19565;46.602;11.534;2023-02-11T16:13:00;5.60;75.00